Terminal Aerodrome Forecast
Issued by NWS

Home | Current Version | Previous Version | Text Only | Print | Product List | Glossary On
Versions: 1 2 3 4 5 6 7 8 9 10 11 12 13 14 15
104
FTUS46 KMTR 081140
TAFSTS
TAF
KSTS 081140Z 0812/0912 VRB03KT 4SM -SHRA BR BKN012 OVC015
      TEMPO 0812/0816 3SM SHRA BR BKN005 OVC010
     FM081600 VRB03KT 5SM -SHRA BR SCT007 BKN015 OVC025
      TEMPO 0816/0820 4SM SHRA BKN006 OVC012
     FM090000 16004KT 6SM BR VCSH BKN012 OVC020
     FM090700 VRB02KT 2SM BR VCSH OVC007=

USA.gov is the U.S. government's official web portal to all federal, state and local government web resources and services.